Time;durP1;ratioP1;P1;durP2;ratioP2;P2;SDS_P1;SDS_P2;PMS_P1;PMS_P2;Temp;Humidity;BMP_temperature;BMP_pressure;BME280_temperature;BME280_humidity;BME280_pressure;Samples;Min_cycle;Max_cycle;Signal;HPM_P1;HPM_P2
2021/09/26 00:00:14;;;;;;;15.73;8.63;;;15.60;98.10;;;13.69;100.00;100392.56;5010464;28;20042;-72
2021/09/26 00:02:43;;;;;;;11.48;8.38;;;15.60;98.10;;;13.74;100.00;100394.66;5010694;28;20041;-72
2021/09/26 00:05:12;;;;;;;14.15;8.40;;;15.70;98.30;;;13.72;100.00;100383.91;5010575;28;20092;-75
2021/09/26 00:07:40;;;;;;;19.00;8.35;;;15.70;98.30;;;13.75;100.00;100391.72;5010423;28;20045;-74
2021/09/26 00:10:11;;;;;;;14.20;8.63;;;15.70;98.30;;;13.73;100.00;100382.03;5010279;28;20135;-73
2021/09/26 00:12:40;;;;;;;13.80;8.32;;;15.70;98.30;;;13.68;100.00;100390.88;5009285;28;20120;-72
2021/09/26 00:15:14;;;;;;;14.18;8.07;;;15.70;98.30;;;13.62;100.00;100387.06;5010516;28;20124;-73
2021/09/26 00:17:41;;;;;;;14.02;8.40;;;15.70;98.30;;;13.64;100.00;100381.41;5011102;28;20425;-72
2021/09/26 00:20:11;;;;;;;10.95;7.78;;;15.70;98.30;;;13.61;100.00;100390.00;5010454;28;20077;-72
2021/09/26 00:22:39;;;;;;;16.38;7.90;;;15.70;98.30;;;13.60;100.00;100388.34;5010764;28;20143;-73
2021/09/26 00:25:08;;;;;;;13.27;7.80;;;15.70;98.30;;;13.62;100.00;100384.34;5011873;28;20045;-72
2021/09/26 00:27:36;;;;;;;11.68;7.90;;;15.60;98.20;;;13.68;100.00;100383.50;5030114;28;20128;-72
2021/09/26 00:30:04;;;;;;;15.43;8.10;;;15.70;98.40;;;13.68;100.00;100375.28;5044999;28;20053;-72
2021/09/26 00:32:33;;;;;;;12.88;7.65;;;15.70;98.60;;;13.67;100.00;100381.81;5030123;28;20041;-72
2021/09/26 00:35:01;;;;;;;10.30;7.30;;;15.70;98.50;;;13.67;100.00;100389.19;5029934;28;20087;-73
2021/09/26 00:37:28;;;;;;;12.32;7.45;;;15.70;98.50;;;13.66;100.00;100384.75;5029801;28;20076;-73
2021/09/26 00:39:55;;;;;;;10.40;7.35;;;15.70;98.50;;;13.63;100.00;100382.44;5029689;28;20084;-72
2021/09/26 00:42:23;;;;;;;9.60;6.95;;;15.70;98.40;;;13.63;100.00;100377.81;5029558;28;20045;-73
2021/09/26 00:44:51;;;;;;;11.07;7.40;;;15.70;98.50;;;13.64;100.00;100382.22;5028054;28;20085;-72
2021/09/26 00:47:18;;;;;;;13.00;7.20;;;15.60;98.20;;;13.56;100.00;100382.44;5028073;28;20058;-72
2021/09/26 00:49:47;;;;;;;11.35;7.15;;;15.60;98.20;;;13.54;100.00;100379.06;5020859;28;20073;-72
2021/09/26 00:52:17;;;;;;;12.48;7.07;;;15.60;98.40;;;13.59;100.00;100382.00;5009874;28;20211;-73
2021/09/26 00:54:46;;;;;;;13.02;7.25;;;15.60;98.40;;;13.60;100.00;100382.88;5010050;28;20042;-73
2021/09/26 00:57:14;;;;;;;12.82;7.53;;;15.60;98.50;;;13.63;100.00;100379.69;5017080;28;20111;-72
2021/09/26 00:59:42;;;;;;;13.13;7.47;;;15.60;98.60;;;13.69;100.00;100377.00;5028978;28;20073;-73
2021/09/26 01:02:09;;;;;;;13.45;7.43;;;15.60;98.70;;;13.78;100.00;100374.03;5028019;28;20050;-73
2021/09/26 01:04:36;;;;;;;15.18;7.45;;;15.70;98.80;;;13.83;100.00;100366.06;5029184;28;20496;-72
2021/09/26 01:07:12;;;;;;;12.48;7.97;;;15.70;99.00;;;13.88;100.00;100374.47;5029264;28;20119;-73
2021/09/26 01:09:51;;;;;;;12.43;6.68;;;15.70;99.10;;;13.85;100.00;100364.78;5028739;28;20049;-72
2021/09/26 01:12:32;;;;;;;10.38;6.93;;;15.70;99.20;;;13.82;100.00;100361.63;5029251;28;20037;-72
2021/09/26 01:15:07;;;;;;;10.77;6.55;;;15.70;99.20;;;13.81;100.00;100362.69;5028517;28;20057;-72
2021/09/26 01:17:41;;;;;;;16.35;6.60;;;15.70;99.10;;;13.78;100.00;100363.09;5029168;28;20041;-72
2021/09/26 01:20:40;;;;;;;10.35;7.05;;;15.70;99.00;;;13.67;100.00;100361.84;5026957;28;20049;-72
2021/09/26 01:23:41;;;;;;;13.75;6.80;;;15.70;99.00;;;13.61;100.00;100363.53;5028515;28;20119;-73
2021/09/26 01:26:30;;;;;;;9.35;6.60;;;15.70;98.90;;;13.62;100.00;100361.63;5028068;28;20042;-73
2021/09/26 01:29:08;;;;;;;10.43;6.47;;;15.70;98.90;;;13.61;100.00;100363.53;5028319;28;20041;-73
2021/09/26 01:31:41;;;;;;;10.38;6.07;;;15.70;98.90;;;13.66;100.00;100360.16;5028708;28;20041;-72
2021/09/26 01:34:15;;;;;;;8.93;6.82;;;15.70;98.90;;;13.66;100.00;100352.78;5029200;28;20398;-73
2021/09/26 01:36:50;;;;;;;11.65;6.60;;;15.70;98.90;;;13.67;100.00;100350.91;5028644;28;20063;-72
2021/09/26 01:39:22;;;;;;;11.23;6.60;;;15.70;98.90;;;13.71;100.00;100352.16;5023724;28;20584;-72
2021/09/26 01:41:55;;;;;;;12.10;7.05;;;15.70;98.80;;;13.73;100.00;100354.66;5029057;28;20497;-72
2021/09/26 01:44:30;;;;;;;9.77;7.10;;;15.70;98.90;;;13.73;100.00;100360.13;5027119;28;20049;-72
2021/09/26 01:46:58;;;;;;;11.20;7.05;;;15.70;99.10;;;13.79;100.00;100364.78;5028027;28;20045;-72
2021/09/26 01:49:34;;;;;;;9.00;6.50;;;15.60;99.00;;;13.85;100.00;100362.03;5027810;28;20091;-72
2021/09/26 01:52:04;;;;;;;11.57;7.18;;;15.70;99.20;;;13.88;100.00;100358.91;5028463;28;20072;-72
2021/09/26 01:54:32;;;;;;;12.30;7.15;;;15.70;99.40;;;13.94;100.00;100346.28;5027299;28;20100;-72
2021/09/26 01:57:00;;;;;;;10.52;6.85;;;15.70;99.50;;;13.95;100.00;100358.88;5043391;28;20199;-73
2021/09/26 01:59:28;;;;;;;9.80;6.97;;;15.70;99.70;;;14.00;100.00;100345.44;5027549;28;20068;-72
2021/09/26 02:01:59;;;;;;;13.95;7.88;;;15.80;99.70;;;14.06;100.00;100354.69;5028341;28;20103;-72
2021/09/26 02:04:30;;;;;;;14.35;7.13;;;15.80;99.80;;;14.01;100.00;100352.59;5028521;28;20121;-72
2021/09/26 02:06:58;;;;;;;10.68;7.20;;;15.80;99.90;;;14.03;100.00;100350.50;5043852;28;20069;-72
2021/09/26 02:09:26;;;;;;;12.43;7.95;;;15.80;99.80;;;14.08;100.00;100347.94;5026502;28;20670;-72
2021/09/26 02:11:54;;;;;;;14.57;7.50;;;15.90;99.90;;;14.12;100.00;100342.06;5028434;28;20512;-72
2021/09/26 02:14:22;;;;;;;13.23;7.68;;;15.90;99.90;;;14.15;100.00;100338.91;5026901;28;20057;-72
2021/09/26 02:16:51;;;;;;;12.68;7.60;;;15.90;99.90;;;14.18;100.00;100342.03;5028429;28;20065;-72
2021/09/26 02:19:22;;;;;;;12.07;7.75;;;15.90;99.90;;;14.22;100.00;100347.91;5028178;28;20053;-72
2021/09/26 02:21:50;;;;;;;12.07;7.30;;;15.90;99.90;;;14.24;100.00;100345.81;5026877;28;20045;-72
2021/09/26 02:24:18;;;;;;;11.13;7.53;;;15.90;99.90;;;14.27;100.00;100343.50;5028386;28;20068;-72
2021/09/26 02:26:46;;;;;;;11.73;7.85;;;16.00;99.90;;;14.28;100.00;100341.63;5035985;28;20041;-72
2021/09/26 02:29:13;;;;;;;14.50;7.85;;;16.00;99.90;;;14.30;100.00;100344.97;5026584;28;20140;-73
2021/09/26 02:31:40;;;;;;;15.18;8.63;;;16.00;99.90;;;14.31;100.00;100340.34;5027947;28;20049;-72
2021/09/26 02:34:08;;;;;;;11.93;8.10;;;16.00;99.90;;;14.35;100.00;100345.16;5028390;28;20080;-72
2021/09/26 02:36:37;;;;;;;12.90;8.38;;;16.10;99.90;;;14.39;100.00;100345.56;5026762;28;20099;-72
2021/09/26 02:39:06;;;;;;;12.43;7.63;;;16.10;99.90;;;14.43;100.00;100344.09;5026741;28;20069;-72
2021/09/26 02:41:42;;;;;;;11.55;7.95;;;16.10;99.90;;;14.48;100.00;100338.81;5027153;28;20080;-72
2021/09/26 02:44:17;;;;;;;13.38;8.70;;;16.10;99.90;;;14.52;100.00;100341.97;5027038;28;20127;-72
2021/09/26 02:46:55;;;;;;;11.68;9.07;;;16.20;99.90;;;14.51;100.00;100343.88;5024791;28;20052;-73
2021/09/26 02:49:22;;;;;;;11.25;7.95;;;16.20;99.90;;;14.56;100.00;100340.47;5043333;28;20053;-72
2021/09/26 02:51:52;;;;;;;12.35;7.97;;;16.20;99.90;;;14.58;100.00;100352.97;5028382;28;20095;-72
2021/09/26 02:54:21;;;;;;;13.75;8.23;;;16.20;99.90;;;14.61;100.00;100347.03;5014207;28;20138;-72
2021/09/26 02:56:51;;;;;;;14.02;8.43;;;16.30;99.90;;;14.65;100.00;100344.69;5008351;28;20050;-72
2021/09/26 02:59:20;;;;;;;13.13;8.27;;;16.30;99.90;;;14.70;100.00;100346.78;5033277;28;20057;-73
2021/09/26 03:01:53;;;;;;;11.95;8.60;;;16.30;99.90;;;14.70;100.00;100350.38;5047951;28;20064;-72
2021/09/26 03:04:21;;;;;;;11.85;8.68;;;16.30;99.90;;;14.69;100.00;100347.84;5046198;28;20049;-73
2021/09/26 03:06:49;;;;;;;12.90;7.93;;;16.30;99.90;;;14.64;100.00;100345.75;5046786;28;20049;-73
2021/09/26 03:09:17;;;;;;;13.00;8.65;;;16.40;99.90;;;14.59;100.00;100338.19;5045587;28;20053;-72
2021/09/26 03:11:45;;;;;;;12.50;8.07;;;16.40;99.90;;;14.64;100.00;100337.53;5036290;28;20068;-72
2021/09/26 03:14:12;;;;;;;13.70;8.43;;;16.40;99.90;;;14.63;100.00;100327.66;5027573;28;20041;-72
2021/09/26 03:16:40;;;;;;;11.02;7.97;;;16.40;99.90;;;14.61;100.00;100343.47;5027820;28;20105;-72
2021/09/26 03:19:08;;;;;;;12.07;7.82;;;16.40;99.90;;;14.59;100.00;100331.88;5027475;28;20077;-73
2021/09/26 03:21:36;;;;;;;17.60;8.50;;;16.40;99.90;;;14.55;100.00;100336.91;5027853;28;20512;-72
2021/09/26 03:24:03;;;;;;;12.70;8.48;;;16.40;99.90;;;14.55;100.00;100336.09;5027918;28;20033;-72
2021/09/26 03:26:32;;;;;;;11.05;7.70;;;16.40;99.90;;;14.56;100.00;100333.09;5027368;28;20068;-72
2021/09/26 03:28:59;;;;;;;11.65;7.57;;;16.40;99.90;;;14.55;100.00;100325.13;5027306;28;20087;-72
2021/09/26 03:31:26;;;;;;;15.90;7.55;;;16.40;99.90;;;14.54;100.00;100321.53;5027595;28;20152;-73
2021/09/26 03:33:55;;;;;;;12.00;8.43;;;16.40;99.90;;;14.55;100.00;100320.47;5027055;28;20072;-73
2021/09/26 03:36:22;;;;;;;13.27;8.13;;;16.40;99.90;;;14.57;100.00;100323.03;5027258;28;20794;-72
2021/09/26 03:38:50;;;;;;;13.50;8.20;;;16.40;99.90;;;14.62;100.00;100325.94;5020834;28;20745;-73
2021/09/26 03:41:19;;;;;;;13.05;8.27;;;16.40;99.90;;;14.59;100.00;100318.19;5027424;28;20045;-73
2021/09/26 03:43:47;;;;;;;11.70;8.10;;;16.40;99.90;;;14.55;100.00;100312.25;5027615;28;20099;-75
2021/09/26 03:46:15;;;;;;;11.55;7.80;;;16.40;99.90;;;14.52;100.00;100315.41;5042240;28;20491;-72
2021/09/26 03:48:42;;;;;;;12.27;7.85;;;16.40;99.90;;;14.53;100.00;100319.03;5027060;28;20543;-73
2021/09/26 03:51:09;;;;;;;11.98;8.23;;;16.40;99.90;;;14.60;100.00;100322.59;5026948;28;20107;-72
2021/09/26 03:53:37;;;;;;;13.00;8.38;;;16.40;99.90;;;14.65;100.00;100322.78;5027468;28;20064;-72
2021/09/26 03:56:05;;;;;;;11.68;8.23;;;16.40;99.90;;;14.66;100.00;100316.28;5027510;28;20144;-73
2021/09/26 04:01:07;;;;;;;14.60;8.32;;;16.40;99.90;;;14.69;100.00;100315.81;5003809;28;20061;-78
2021/09/26 04:03:34;;;;;;;13.38;8.77;;;16.50;99.90;;;14.70;100.00;100320.25;4980681;28;20045;-79
2021/09/26 04:06:05;;;;;;;9.93;7.25;;;16.50;99.90;;;14.70;100.00;100314.78;5007722;28;20080;-78
2021/09/26 04:08:32;;;;;;;11.32;7.35;;;16.50;99.90;;;14.77;100.00;100312.81;5007278;28;20104;-78
2021/09/26 04:11:00;;;;;;;15.10;7.28;;;16.40;99.90;;;14.82;100.00;100321.25;5004413;28;20577;-78
2021/09/26 04:13:27;;;;;;;11.15;7.57;;;16.50;99.90;;;14.84;100.00;100316.38;4968732;28;20097;-79
2021/09/26 04:15:54;;;;;;;11.88;7.40;;;16.50;99.90;;;14.88;100.00;100318.69;4987760;28;20054;-78
2021/09/26 04:18:23;;;;;;;10.98;7.35;;;16.50;99.90;;;14.92;100.00;100317.19;4990699;28;20043;-78
2021/09/26 04:20:51;;;;;;;10.68;7.85;;;16.60;99.90;;;14.96;100.00;100318.44;4986524;28;20054;-79
2021/09/26 04:23:18;;;;;;;10.98;7.18;;;16.60;99.90;;;15.00;100.00;100311.47;5010727;28;20042;-78
2021/09/26 04:25:46;;;;;;;11.30;6.97;;;16.60;99.90;;;15.02;100.00;100314.81;5009518;28;20042;-79
2021/09/26 04:28:13;;;;;;;11.20;6.85;;;16.60;99.90;;;15.06;100.00;100321.56;5010406;28;20124;-79
2021/09/26 04:30:41;;;;;;;9.70;6.57;;;16.60;99.90;;;15.08;100.00;100313.97;5010825;28;20572;-79
2021/09/26 04:33:08;;;;;;;11.80;7.18;;;16.70;99.90;;;15.11;100.00;100318.16;5010574;28;20046;-79
2021/09/26 04:35:37;;;;;;;8.85;6.68;;;16.70;99.90;;;15.13;100.00;100313.28;4993224;28;20045;-78
2021/09/26 04:38:04;;;;;;;10.43;7.30;;;16.70;99.90;;;15.15;100.00;100317.50;4992745;28;20134;-78
2021/09/26 04:40:32;;;;;;;9.77;7.30;;;16.70;99.90;;;15.17;100.00;100323.63;5010849;28;20076;-78
2021/09/26 04:42:59;;;;;;;9.82;6.43;;;16.80;99.90;;;15.18;100.00;100317.06;4992739;28;20064;-78
2021/09/26 04:45:27;;;;;;;11.70;6.60;;;16.80;99.90;;;15.22;100.00;100318.28;5010228;28;20537;-78
2021/09/26 04:47:54;;;;;;;10.02;6.75;;;16.80;99.90;;;15.29;100.00;100322.88;5010579;28;20104;-78
2021/09/26 04:50:22;;;;;;;10.20;6.30;;;16.80;99.90;;;15.36;100.00;100323.69;5010095;28;20053;-78
2021/09/26 04:52:50;;;;;;;9.60;6.60;;;16.90;99.90;;;15.41;100.00;100324.72;5010447;28;20106;-79
2021/09/26 04:55:23;;;;;;;10.73;6.35;;;16.90;99.90;;;15.43;100.00;100317.09;4992563;28;20125;-78
2021/09/26 04:57:51;;;;;;;10.05;7.10;;;17.00;99.90;;;15.47;100.00;100317.50;5010105;28;20070;-78
2021/09/26 05:00:19;;;;;;;12.20;7.13;;;17.00;99.90;;;15.52;100.00;100319.59;5007618;28;20453;-78
2021/09/26 05:02:47;;;;;;;11.55;6.65;;;17.00;99.90;;;15.55;100.00;100322.72;5009061;28;20065;-78
2021/09/26 05:05:17;;;;;;;11.68;6.82;;;17.10;99.90;;;15.59;100.00;100314.88;5007339;28;20042;-79
2021/09/26 05:07:45;;;;;;;15.60;7.45;;;17.10;99.90;;;15.62;100.00;100320.75;4990748;28;20127;-77
2021/09/26 05:10:14;;;;;;;11.88;6.95;;;17.10;99.90;;;15.67;100.00;100328.34;5007804;28;20121;-74
2021/09/26 05:12:41;;;;;;;8.98;6.60;;;17.10;99.90;;;15.68;100.00;100323.69;4990984;28;20054;-74
2021/09/26 05:15:10;;;;;;;10.65;6.95;;;17.20;99.90;;;15.71;100.00;100323.25;5010444;28;20042;-75
2021/09/26 05:17:38;;;;;;;12.35;7.35;;;17.20;99.90;;;15.71;100.00;100315.84;5010263;28;20118;-74
2021/09/26 05:20:08;;;;;;;11.05;7.28;;;17.20;99.90;;;15.75;100.00;100314.38;5009875;28;20577;-73
2021/09/26 05:22:35;;;;;;;10.98;7.22;;;17.30;99.90;;;15.76;100.00;100320.69;5010212;28;20038;-74
2021/09/26 05:25:04;;;;;;;10.73;6.55;;;17.30;99.90;;;15.79;100.00;100320.25;5010131;28;20200;-74
2021/09/26 05:27:33;;;;;;;11.98;6.90;;;17.30;99.90;;;15.81;100.00;100318.13;5009915;28;20042;-74
2021/09/26 05:30:00;;;;;;;10.43;7.07;;;17.40;99.90;;;15.84;100.00;100323.19;5008967;28;20050;-73
2021/09/26 05:32:28;;;;;;;10.75;6.93;;;17.40;99.90;;;15.89;100.00;100320.59;5007354;28;20084;-73
2021/09/26 05:34:55;;;;;;;13.20;7.32;;;17.40;99.90;;;15.95;100.00;100318.84;5008007;28;20034;-74
2021/09/26 05:37:22;;;;;;;10.52;6.82;;;17.40;99.90;;;15.97;100.00;100322.19;5008853;28;20565;-74
2021/09/26 05:39:50;;;;;;;13.52;7.95;;;17.50;99.90;;;16.02;100.00;100319.63;5008191;28;20125;-73
2021/09/26 05:42:17;;;;;;;10.65;7.25;;;17.50;99.90;;;16.03;100.00;100327.66;5008393;28;20076;-74
2021/09/26 05:44:46;;;;;;;12.38;7.28;;;17.50;99.90;;;16.03;100.00;100327.66;4990618;28;20053;-73
2021/09/26 05:47:14;;;;;;;9.70;6.78;;;17.50;99.90;;;16.05;100.00;100327.44;5008972;28;20046;-74
2021/09/26 05:49:43;;;;;;;11.38;7.18;;;17.60;99.90;;;16.09;100.00;100334.13;4990414;28;20050;-76
2021/09/26 05:52:11;;;;;;;12.05;6.93;;;17.60;99.90;;;16.14;100.00;100328.78;5007492;28;20050;-77
2021/09/26 05:54:41;;;;;;;10.07;6.85;;;17.60;99.90;;;16.15;100.00;100329.66;5008393;28;20096;-77
2021/09/26 05:57:09;;;;;;;9.13;6.80;;;17.70;99.90;;;16.16;100.00;100332.19;5008544;28;20870;-77
2021/09/26 05:59:38;;;;;;;11.48;7.00;;;17.70;99.90;;;16.20;100.00;100332.53;4990464;28;20100;-74
2021/09/26 06:02:10;;;;;;;9.45;6.53;;;17.70;99.90;;;16.22;100.00;100330.41;5008398;28;20413;-75
2021/09/26 06:04:38;;;;;;;10.38;7.32;;;17.70;99.90;;;16.22;100.00;100330.41;5008166;28;20041;-73
2021/09/26 06:07:06;;;;;;;11.02;6.93;;;17.70;99.90;;;16.21;100.00;100335.06;5007733;28;20049;-72
2021/09/26 06:09:33;;;;;;;11.35;7.18;;;17.80;99.90;;;16.23;100.00;100329.34;5007084;28;20042;-72
2021/09/26 06:12:01;;;;;;;11.35;7.70;;;17.80;99.90;;;16.25;100.00;100335.47;5005820;28;20156;-73
2021/09/26 06:14:28;;;;;;;9.88;6.80;;;17.80;99.90;;;16.28;100.00;100340.50;5007114;28;20046;-73
2021/09/26 06:16:55;;;;;;;14.20;6.68;;;17.80;99.90;;;16.31;100.00;100340.03;4989730;28;20452;-74
2021/09/26 06:19:24;;;;;;;10.02;7.22;;;17.80;99.90;;;16.35;100.00;100344.00;5007856;28;20843;-75
2021/09/26 06:21:51;;;;;;;12.65;7.70;;;17.80;99.90;;;16.39;100.00;100345.25;4990570;28;20054;-75
2021/09/26 06:24:19;;;;;;;12.05;7.40;;;17.90;99.90;;;16.47;100.00;100357.84;5007849;28;20081;-75
2021/09/26 06:26:46;;;;;;;10.35;6.78;;;17.90;99.90;;;16.50;100.00;100354.63;5008165;28;20127;-75
2021/09/26 06:29:14;;;;;;;11.38;7.28;;;18.00;99.90;;;16.57;100.00;100346.31;5007755;28;20057;-74
2021/09/26 06:31:41;;;;;;;11.88;7.28;;;18.00;99.90;;;16.61;100.00;100340.13;4989972;28;20101;-78
2021/09/26 06:34:09;;;;;;;12.07;7.10;;;18.00;99.90;;;16.70;100.00;100337.09;5007834;28;20049;-77
2021/09/26 06:36:38;;;;;;;10.73;7.47;;;18.00;99.90;;;16.78;100.00;100340.38;5007873;28;20099;-78
2021/09/26 06:39:05;;;;;;;11.10;7.20;;;18.10;99.90;;;16.89;100.00;100348.97;5007224;28;20037;-76
2021/09/26 06:41:32;;;;;;;12.98;7.43;;;18.20;99.90;;;16.94;100.00;100360.91;5007691;28;20465;-77
2021/09/26 06:44:01;;;;;;;12.60;6.78;;;18.20;99.90;;;17.02;100.00;100354.28;5007355;28;20097;-73
2021/09/26 06:46:29;;;;;;;12.18;7.13;;;18.20;99.90;;;17.08;100.00;100360.78;5007402;28;20069;-81
2021/09/26 06:48:56;;;;;;;11.88;6.82;;;18.30;99.90;;;17.12;100.00;100362.81;4989413;28;20045;-79
2021/09/26 06:51:24;;;;;;;11.02;7.50;;;18.30;99.90;;;17.14;100.00;100368.91;5006768;28;20560;-78
2021/09/26 06:53:53;;;;;;;10.52;7.32;;;18.40;99.90;;;17.14;100.00;100379.09;5007038;28;20038;-73
2021/09/26 06:56:20;;;;;;;12.60;7.63;;;18.40;99.90;;;17.13;100.00;100380.97;5006658;28;20125;-77
2021/09/26 06:58:47;;;;;;;9.88;7.15;;;18.40;99.90;;;17.12;100.00;100373.81;5007480;28;20551;-75
2021/09/26 07:01:15;;;;;;;10.95;7.10;;;18.40;99.90;;;17.12;100.00;100373.81;4991219;28;20068;-75
2021/09/26 07:03:42;;;;;;;12.43;7.30;;;18.50;99.90;;;17.16;100.00;100366.78;4993429;28;20567;-76
2021/09/26 07:06:10;;;;;;;12.43;7.60;;;18.50;99.90;;;17.23;100.00;100379.59;5006051;28;20564;-75
2021/09/26 07:08:37;;;;;;;14.73;7.28;;;18.50;99.90;;;17.28;100.00;100385.25;4989268;28;20537;-76
2021/09/26 07:11:06;;;;;;;11.43;7.53;;;18.60;99.90;;;17.30;100.00;100396.84;5005629;28;20522;-72
2021/09/26 07:13:34;;;;;;;12.38;7.78;;;18.60;99.90;;;17.29;100.00;100384.19;4989006;28;20170;-75
2021/09/26 07:16:01;;;;;;;11.02;7.63;;;18.60;99.90;;;17.31;100.00;100387.53;5005334;28;20060;-76
2021/09/26 07:18:28;;;;;;;12.25;7.60;;;18.60;99.90;;;17.38;100.00;100385.50;4996171;28;20050;-74
2021/09/26 07:20:56;;;;;;;13.48;7.68;;;18.70;99.90;;;17.59;100.00;100387.78;4969640;28;20046;-74
2021/09/26 07:23:23;;;;;;;12.23;7.82;;;18.70;99.90;;;17.79;100.00;100383.88;4986563;28;20093;-76
2021/09/26 07:25:51;;;;;;;11.75;7.82;;;18.80;99.90;;;17.98;100.00;100391.00;5003761;28;20045;-76
2021/09/26 07:28:20;;;;;;;11.18;7.30;;;18.90;99.90;;;18.17;100.00;100385.41;4987863;28;20157;-77
2021/09/26 07:30:47;;;;;;;13.25;7.30;;;19.00;99.90;;;18.42;100.00;100381.59;5005677;28;20049;-77
2021/09/26 07:33:15;;;;;;;12.73;7.05;;;19.10;99.90;;;18.65;100.00;100380.72;5006820;28;20042;-76
2021/09/26 07:35:45;;;;;;;11.60;7.25;;;19.10;99.90;;;18.81;100.00;100384.69;5005654;28;20050;-75
2021/09/26 07:38:13;;;;;;;11.68;7.30;;;19.30;99.90;;;18.90;100.00;100377.72;4999855;28;20038;-76
2021/09/26 07:40:40;;;;;;;13.30;7.57;;;19.40;99.90;;;18.99;100.00;100386.47;4970041;28;20038;-74
2021/09/26 07:43:08;;;;;;;10.50;7.63;;;19.50;99.90;;;19.07;100.00;100397.94;4970049;28;20477;-76
2021/09/26 07:45:37;;;;;;;12.93;7.25;;;19.60;99.90;;;19.07;100.00;100406.22;4987061;28;20070;-79
2021/09/26 07:48:05;;;;;;;9.32;6.57;;;19.60;99.90;;;19.01;100.00;100407.19;4987112;28;20130;-81
2021/09/26 07:50:33;;;;;;;13.15;6.70;;;19.70;99.90;;;19.00;99.72;100412.94;4969687;28;20054;-79
2021/09/26 07:53:00;;;;;;;10.38;7.35;;;19.70;99.60;;;19.02;100.00;100413.53;4990133;28;20049;-79
2021/09/26 07:55:28;;;;;;;10.90;7.13;;;19.70;99.90;;;18.98;100.00;100409.59;4973203;28;20093;-75
2021/09/26 07:57:55;;;;;;;9.98;7.25;;;19.70;99.60;;;18.97;99.52;100416.19;4991139;28;20069;-71
2021/09/26 08:00:22;;;;;;;13.60;8.00;;;19.80;99.00;;;19.03;99.76;100415.22;5009525;28;20048;-72
2021/09/26 08:02:51;;;;;;;14.50;7.20;;;19.80;99.20;;;19.06;98.78;100407.31;5010397;28;20167;-71
2021/09/26 08:05:18;;;;;;;10.05;7.25;;;19.80;98.80;;;19.04;98.89;100406.72;5010127;28;20049;-71
2021/09/26 08:07:46;;;;;;;9.63;6.93;;;19.80;98.50;;;19.02;98.70;100403.38;5010298;28;20041;-72
2021/09/26 08:10:13;;;;;;;13.05;7.40;;;19.80;98.40;;;18.99;98.77;100387.28;5009962;28;20773;-71
2021/09/26 08:12:41;;;;;;;11.35;7.63;;;19.90;98.50;;;19.02;98.90;100384.06;5009251;28;20060;-72
2021/09/26 08:15:10;;;;;;;12.52;7.53;;;19.90;98.40;;;19.08;99.31;100388.59;5009750;28;20073;-74
2021/09/26 08:17:37;;;;;;;12.13;7.47;;;20.00;98.60;;;19.25;98.41;100394.19;5009472;28;20738;-72
2021/09/26 08:20:08;;;;;;;13.93;7.70;;;20.00;98.10;;;19.34;97.83;100402.88;5009637;28;20904;-72
2021/09/26 08:22:35;;;;;;;15.87;7.80;;;20.10;97.90;;;19.40;98.05;100403.81;5009681;28;20049;-72
2021/09/26 08:25:04;;;;;;;14.82;7.15;;;20.10;98.10;;;19.41;97.28;100414.63;5009551;28;20285;-71
2021/09/26 08:27:31;;;;;;;11.82;8.15;;;20.20;97.40;;;19.43;97.86;100415.22;5010575;28;20084;-72
2021/09/26 08:29:58;;;;;;;12.00;7.07;;;20.30;97.70;;;19.45;99.29;100410.28;5010129;28;20124;-71
2021/09/26 08:32:27;;;;;;;11.30;7.25;;;20.30;98.40;;;19.46;98.98;100405.63;4992895;28;20053;-71
2021/09/26 08:34:54;;;;;;;12.02;7.97;;;20.40;97.80;;;19.46;99.03;100414.75;5010467;28;20050;-71
2021/09/26 08:37:23;;;;;;;12.18;7.55;;;20.50;97.70;;;19.47;98.48;100416.41;5010417;28;20509;-71
2021/09/26 08:39:50;;;;;;;13.38;7.82;;;20.50;97.10;;;19.49;99.03;100425.25;5009862;28;20073;-71
2021/09/26 08:42:17;;;;;;;9.35;7.07;;;20.60;97.40;;;19.60;98.80;100426.31;5010278;28;20057;-71
2021/09/26 08:44:46;;;;;;;10.45;7.10;;;20.60;97.30;;;19.68;99.63;100416.78;5010486;28;20141;-71
2021/09/26 08:47:14;;;;;;;14.27;7.50;;;20.70;98.00;;;19.76;98.09;100419.19;5010220;28;20650;-72
2021/09/26 08:49:41;;;;;;;11.88;7.47;;;20.80;96.80;;;19.87;98.12;100423.81;5009908;28;20045;-71
2021/09/26 08:52:10;;;;;;;11.02;7.72;;;20.80;97.20;;;19.89;97.01;100416.09;5010254;28;20049;-71
2021/09/26 08:54:40;;;;;;;12.10;7.45;;;20.90;96.50;;;19.90;96.99;100420.56;5010159;28;20077;-71
2021/09/26 08:57:07;;;;;;;10.88;7.75;;;20.90;96.30;;;19.94;96.16;100429.19;5010220;28;20046;-71
2021/09/26 08:59:35;;;;;;;12.48;7.47;;;20.90;96.00;;;19.86;96.46;100424.91;4992075;28;20065;-72
2021/09/26 09:02:03;;;;;;;11.27;7.65;;;20.80;96.10;;;19.80;96.52;100425.03;5009643;28;20093;-71
2021/09/26 09:04:39;;;;;;;11.70;7.88;;;20.80;96.00;;;19.78;96.55;100430.84;5007450;28;20061;-71
2021/09/26 09:07:08;;;;;;;12.60;8.10;;;20.80;95.80;;;19.75;96.88;100425.81;5009940;28;20045;-71
2021/09/26 09:09:50;;;;;;;12.25;7.38;;;20.80;95.90;;;19.75;97.98;100434.09;5008755;28;20045;-71
2021/09/26 09:12:19;;;;;;;11.63;7.55;;;20.90;96.60;;;19.78;97.19;100428.06;5009816;28;20038;-71
2021/09/26 09:14:52;;;;;;;13.88;7.78;;;20.90;95.90;;;19.79;97.50;100418.69;5009431;28;20104;-71
2021/09/26 09:17:29;;;;;;;10.20;7.13;;;21.00;95.90;;;19.82;96.98;100429.25;5009529;28;20092;-72
2021/09/26 09:20:16;;;;;;;13.02;7.53;;;21.00;95.50;;;19.82;97.46;100432.00;4991583;28;20081;-71
2021/09/26 09:22:47;;;;;;;12.68;7.95;;;21.00;95.70;;;19.90;97.40;100430.78;4991945;28;20053;-71
2021/09/26 09:25:33;;;;;;;9.52;7.10;;;21.10;95.70;;;19.91;97.85;100433.28;5009625;28;20053;-72
2021/09/26 09:28:02;;;;;;;13.63;7.03;;;21.10;96.00;;;19.91;97.44;100421.38;5009271;28;20119;-71
2021/09/26 09:30:32;;;;;;;11.43;7.63;;;21.20;95.50;;;19.90;97.35;100426.06;5009559;28;20042;-71
2021/09/26 09:32:59;;;;;;;10.88;7.40;;;21.20;95.10;;;19.90;97.20;100423.31;4991897;28;20676;-71
2021/09/26 09:35:29;;;;;;;11.20;7.18;;;21.20;95.00;;;19.93;96.20;100424.72;5008844;28;20101;-71
2021/09/26 09:37:56;;;;;;;9.68;6.43;;;21.20;94.30;;;19.94;95.57;100420.91;5009305;28;20096;-71
2021/09/26 09:40:24;;;;;;;11.15;7.18;;;21.20;94.00;;;19.95;95.39;100433.59;5008786;28;20045;-71
2021/09/26 09:42:56;;;;;;;13.60;6.47;;;21.20;93.80;;;19.99;96.37;100425.66;5008515;28;20068;-71
2021/09/26 09:45:26;;;;;;;11.48;6.57;;;21.30;94.70;;;20.01;95.14;100432.63;5009021;28;20050;-71
2021/09/26 09:48:14;;;;;;;8.63;6.32;;;21.30;93.80;;;19.99;94.90;100436.72;5008687;28;20128;-71
2021/09/26 09:50:47;;;;;;;11.88;7.03;;;21.30;93.60;;;19.96;94.38;100445.50;5008566;28;20050;-71
2021/09/26 09:53:25;;;;;;;10.50;6.20;;;21.30;92.90;;;20.02;95.33;100444.50;5008877;28;20827;-71
2021/09/26 09:56:17;;;;;;;11.18;6.60;;;21.30;93.80;;;20.05;94.92;100449.56;4991055;28;20073;-71
2021/09/26 09:58:48;;;;;;;9.85;5.80;;;21.40;93.60;;;20.13;94.29;100453.84;5008439;28;20064;-72
2021/09/26 10:01:23;;;;;;;7.50;5.47;;;21.40;93.10;;;20.15;94.32;100451.66;5008792;28;20042;-71
2021/09/26 10:03:53;;;;;;;10.68;6.47;;;21.40;92.90;;;20.18;93.52;100459.41;5008882;28;20049;-71
2021/09/26 10:06:29;;;;;;;10.45;5.50;;;21.50;92.80;;;20.21;93.93;100448.72;4991264;28;20042;-71
2021/09/26 10:09:02;;;;;;;11.35;6.60;;;21.50;92.90;;;20.20;93.12;100446.19;5008534;28;20792;-71
2021/09/26 10:11:32;;;;;;;10.77;6.47;;;21.50;92.60;;;20.22;94.63;100449.53;4990946;28;20112;-71
2021/09/26 10:14:01;;;;;;;11.38;6.53;;;21.60;93.40;;;20.26;94.78;100446.03;5007402;28;20524;-71